createdAt,value
2023-02-17T00:01:22.636Z,7.75
2023-02-17T00:03:51.519Z,7.78
2023-02-17T00:06:21.160Z,7.76
2023-02-17T00:08:48.254Z,7.77
2023-02-17T00:11:15.118Z,7.79
2023-02-17T00:13:42.420Z,7.82
2023-02-17T00:16:11.289Z,7.82
2023-02-17T00:18:37.782Z,7.79
2023-02-17T00:21:12.733Z,7.86
2023-02-17T00:23:39.145Z,7.79
2023-02-17T00:26:06.989Z,7.91
2023-02-17T00:28:34.364Z,7.85
2023-02-17T00:31:16.114Z,7.93
2023-02-17T00:33:42.794Z,8.00
2023-02-17T00:36:12.858Z,7.94
2023-02-17T00:38:39.605Z,7.86
2023-02-17T00:41:06.077Z,7.94
2023-02-17T00:43:32.550Z,7.90
2023-02-17T00:45:59.064Z,7.89
2023-02-17T00:48:25.814Z,7.98
2023-02-17T00:50:52.298Z,7.97
2023-02-17T00:53:18.971Z,8.01
2023-02-17T00:55:45.516Z,8.12
2023-02-17T00:58:12.198Z,8.07
2023-02-17T01:00:38.711Z,8.11
2023-02-17T01:03:05.147Z,8.11
2023-02-17T01:05:31.880Z,8.09
2023-02-17T01:07:58.393Z,8.24
2023-02-17T01:10:24.851Z,8.16
2023-02-17T01:12:51.672Z,8.14
2023-02-17T01:15:21.296Z,8.22
2023-02-17T01:17:49.612Z,8.24
2023-02-17T01:20:16.253Z,8.21
2023-02-17T01:22:42.697Z,8.22
2023-02-17T01:25:09.143Z,8.22
2023-02-17T01:27:35.978Z,8.22
2023-02-17T01:30:02.581Z,8.24
2023-02-17T01:32:29.383Z,8.23
2023-02-17T01:34:55.980Z,8.31
2023-02-17T01:37:22.555Z,8.31
2023-02-17T01:39:49.401Z,8.20
2023-02-17T01:42:17.626Z,8.32
2023-02-17T01:45:18.356Z,8.35
2023-02-17T01:47:56.374Z,8.32
2023-02-17T01:50:28.219Z,8.26
2023-02-17T01:52:58.076Z,8.31
2023-02-17T01:55:25.953Z,8.38
2023-02-17T01:57:57.509Z,8.44
2023-02-17T02:00:27.801Z,8.35
2023-02-17T02:02:54.870Z,8.41
2023-02-17T02:05:22.039Z,8.38
2023-02-17T02:07:50.350Z,8.44
2023-02-17T02:10:19.619Z,8.44
2023-02-17T02:12:46.412Z,8.40
2023-02-17T02:15:16.236Z,8.36
2023-02-17T02:17:52.456Z,8.47
2023-02-17T02:20:26.044Z,8.52
2023-02-17T02:23:07.738Z,8.51
2023-02-17T02:25:40.240Z,8.48
2023-02-17T02:28:28.579Z,8.46
2023-02-17T02:31:29.212Z,8.45
2023-02-17T02:34:07.801Z,8.41
2023-02-17T02:36:58.564Z,8.51
2023-02-17T02:39:32.586Z,8.47
2023-02-17T02:42:04.865Z,8.46
2023-02-17T02:44:31.520Z,8.49
2023-02-17T02:47:26.107Z,8.52
2023-02-17T02:49:53.089Z,8.44
2023-02-17T02:52:29.671Z,8.53
2023-02-17T02:55:06.286Z,8.49
2023-02-17T02:58:02.265Z,8.49
2023-02-17T03:00:53.935Z,8.50
2023-02-17T03:04:07.300Z,8.52
2023-02-17T03:06:44.803Z,8.62
2023-02-17T03:09:14.716Z,8.54
2023-02-17T03:11:41.999Z,8.63
2023-02-17T03:14:14.934Z,8.57
2023-02-17T03:16:42.753Z,8.67
2023-02-17T03:19:10.628Z,8.71
2023-02-17T03:21:44.891Z,8.70
2023-02-17T03:24:11.349Z,8.64
2023-02-17T03:26:37.843Z,8.62
2023-02-17T03:29:04.331Z,8.64
2023-02-17T03:31:31.318Z,8.62
2023-02-17T03:33:58.631Z,8.74
2023-02-17T03:36:25.096Z,8.80
2023-02-17T03:38:51.801Z,8.76
2023-02-17T03:41:18.346Z,8.77
2023-02-17T03:43:44.775Z,8.73
2023-02-17T03:46:12.727Z,8.73
2023-02-17T03:48:40.078Z,8.81
2023-02-17T03:51:13.220Z,8.74
2023-02-17T03:53:40.030Z,8.80
2023-02-17T03:56:06.926Z,8.75
2023-02-17T03:58:34.252Z,8.69
2023-02-17T04:01:01.092Z,8.71
2023-02-17T04:03:27.609Z,8.73
2023-02-17T04:05:54.569Z,8.69
2023-02-17T04:08:22.102Z,8.78
2023-02-17T04:10:56.694Z,8.73
2023-02-17T04:13:24.002Z,8.72
2023-02-17T04:15:51.134Z,8.66
2023-02-17T04:18:18.674Z,8.65
2023-02-17T04:20:47.350Z,8.69
2023-02-17T04:23:14.523Z,8.70
2023-02-17T04:25:41.348Z,8.73
2023-02-17T04:28:10.005Z,8.74
2023-02-17T04:30:36.467Z,8.75
2023-02-17T04:33:03.841Z,8.76
2023-02-17T04:35:30.525Z,8.80
2023-02-17T04:37:56.991Z,8.80
2023-02-17T04:40:23.597Z,8.76
2023-02-17T04:42:50.164Z,8.68
2023-02-17T04:45:16.923Z,8.74
2023-02-17T04:47:43.345Z,8.74
2023-02-17T04:50:10.660Z,8.69
2023-02-17T04:52:37.086Z,8.76
2023-02-17T04:55:04.927Z,8.79
2023-02-17T04:57:31.406Z,8.83
2023-02-17T04:59:57.817Z,8.79
2023-02-17T05:02:26.845Z,8.79
2023-02-17T05:04:54.011Z,8.75
2023-02-17T05:07:21.110Z,8.76
2023-02-17T05:09:47.838Z,8.82
2023-02-17T05:12:14.656Z,8.76
2023-02-17T05:14:41.051Z,8.88
2023-02-17T05:17:07.489Z,8.83
2023-02-17T05:19:34.045Z,8.87
2023-02-17T05:22:00.454Z,8.88
2023-02-17T05:24:27.218Z,8.89
2023-02-17T05:26:53.872Z,8.93
2023-02-17T05:29:20.438Z,8.93
2023-02-17T05:31:47.208Z,8.98
2023-02-17T05:34:13.734Z,9.00
2023-02-17T05:36:40.219Z,8.95
2023-02-17T05:39:06.718Z,9.04
2023-02-17T05:41:33.176Z,8.96
2023-02-17T05:43:59.572Z,9.13
2023-02-17T05:46:26.172Z,9.14
2023-02-17T05:48:52.701Z,9.17
2023-02-17T05:51:19.490Z,9.14
2023-02-17T05:53:46.109Z,9.18
2023-02-17T05:56:12.480Z,9.18
2023-02-17T05:58:38.930Z,9.20
2023-02-17T06:01:09.774Z,9.17
2023-02-17T06:03:36.217Z,9.17
2023-02-17T06:06:02.850Z,9.20
2023-02-17T06:08:29.257Z,9.20
2023-02-17T06:10:56.005Z,9.22
2023-02-17T06:13:22.479Z,9.16
2023-02-17T06:15:49.411Z,9.29
2023-02-17T06:18:16.131Z,9.28
2023-02-17T06:20:42.587Z,9.32
2023-02-17T06:23:08.971Z,9.27
2023-02-17T06:25:35.823Z,9.34
2023-02-17T06:28:02.303Z,9.33
2023-02-17T06:30:28.843Z,9.31
2023-02-17T06:32:55.329Z,9.25
2023-02-17T06:35:22.020Z,9.31
2023-02-17T06:37:48.628Z,9.35
2023-02-17T06:40:15.670Z,9.41
2023-02-17T06:42:42.115Z,9.39
2023-02-17T06:45:09.039Z,9.40
2023-02-17T06:47:35.683Z,9.44
2023-02-17T06:50:04.839Z,9.43
2023-02-17T06:52:32.029Z,9.43
2023-02-17T06:54:58.668Z,9.38
2023-02-17T06:57:25.101Z,9.43
2023-02-17T06:59:51.709Z,9.38
2023-02-17T07:02:18.300Z,9.43
2023-02-17T07:04:44.823Z,9.39
2023-02-17T07:07:11.869Z,9.39
2023-02-17T07:09:39.147Z,9.41
2023-02-17T07:12:06.307Z,9.42
2023-02-17T07:14:34.283Z,9.47
2023-02-17T07:17:01.899Z,9.48
2023-02-17T07:19:28.309Z,9.43
2023-02-17T07:21:54.743Z,9.47
2023-02-17T07:24:21.261Z,9.53
2023-02-17T07:26:48.624Z,9.46
2023-02-17T07:29:15.008Z,9.50
2023-02-17T07:31:41.559Z,9.54
2023-02-17T07:34:08.049Z,9.51
2023-02-17T07:36:34.721Z,9.59
2023-02-17T07:39:04.396Z,9.53
2023-02-17T07:41:33.495Z,9.51
2023-02-17T07:44:07.740Z,9.50
2023-02-17T07:46:34.240Z,9.49
2023-02-17T07:49:00.669Z,9.51
2023-02-17T07:51:27.991Z,9.55
2023-02-17T07:53:55.061Z,9.62
2023-02-17T07:56:22.322Z,9.62
2023-02-17T07:58:49.004Z,9.62
2023-02-17T08:01:18.356Z,9.63
2023-02-17T08:03:46.088Z,9.64
2023-02-17T08:06:18.583Z,9.68
2023-02-17T08:09:04.188Z,9.70
2023-02-17T08:11:50.108Z,9.76
2023-02-17T08:14:16.822Z,9.70
2023-02-17T08:16:43.485Z,9.73
2023-02-17T08:19:10.022Z,9.69
2023-02-17T08:21:36.524Z,9.75
2023-02-17T08:24:03.172Z,9.76
2023-02-17T08:26:29.736Z,9.80
2023-02-17T08:28:56.395Z,9.77
2023-02-17T08:31:26.307Z,9.78
2023-02-17T08:33:53.394Z,9.77
2023-02-17T08:36:22.168Z,9.77
2023-02-17T08:38:51.268Z,9.77
2023-02-17T08:41:17.661Z,9.80
2023-02-17T08:43:44.223Z,9.81
2023-02-17T08:46:11.951Z,9.79
2023-02-17T08:48:40.332Z,9.76
2023-02-17T08:51:07.309Z,9.83
2023-02-17T08:53:34.592Z,9.85
2023-02-17T08:56:01.148Z,9.89
2023-02-17T08:58:27.575Z,9.93
2023-02-17T09:00:54.145Z,9.88
2023-02-17T09:03:21.163Z,9.85
2023-02-17T09:05:49.944Z,9.87
2023-02-17T09:08:16.912Z,9.87
2023-02-17T09:10:43.435Z,9.86
2023-02-17T09:13:09.935Z,9.86
2023-02-17T09:15:36.409Z,9.87
2023-02-17T09:18:02.909Z,9.87
2023-02-17T09:20:29.546Z,9.82
2023-02-17T09:22:56.271Z,9.83
2023-02-17T09:25:22.942Z,9.85
2023-02-17T09:27:49.911Z,9.82
2023-02-17T09:30:16.765Z,9.85
2023-02-17T09:32:44.175Z,9.90
2023-02-17T09:35:15.620Z,9.90
2023-02-17T09:37:42.299Z,9.91
2023-02-17T09:40:15.324Z,9.91
2023-02-17T09:42:41.840Z,9.88
2023-02-17T09:45:19.034Z,9.92
2023-02-17T09:47:54.950Z,9.85
2023-02-17T09:50:44.002Z,9.90
2023-02-17T09:53:34.437Z,9.90
2023-02-17T09:56:05.658Z,9.90
2023-02-17T09:58:50.375Z,9.90
2023-02-17T10:01:23.945Z,9.88
2023-02-17T10:03:56.173Z,9.95
2023-02-17T10:06:28.491Z,9.92
2023-02-17T10:09:32.036Z,9.89
2023-02-17T10:12:21.400Z,9.91
2023-02-17T10:14:56.741Z,9.91
2023-02-17T10:17:37.709Z,9.93
2023-02-17T10:20:12.417Z,9.97
2023-02-17T10:22:42.468Z,9.96
2023-02-17T10:25:46.489Z,9.97
2023-02-17T10:28:38.090Z,9.90
2023-02-17T10:31:15.176Z,9.94
2023-02-17T10:33:53.028Z,10.00
2023-02-17T10:36:28.882Z,10.01
2023-02-17T10:39:11.967Z,10.05
2023-02-17T10:41:40.172Z,10.12
2023-02-17T10:44:19.879Z,10.15
2023-02-17T10:46:48.857Z,10.16
2023-02-17T10:49:32.297Z,10.23
2023-02-17T10:52:10.604Z,10.31
2023-02-17T10:54:49.118Z,10.35
2023-02-17T10:57:19.537Z,10.39
2023-02-17T10:59:48.998Z,10.48
2023-02-17T11:02:37.875Z,10.48
2023-02-17T11:05:04.831Z,10.59
2023-02-17T11:07:45.112Z,10.63
2023-02-17T11:10:22.996Z,10.70
2023-02-17T11:12:55.830Z,10.78
2023-02-17T11:15:27.073Z,10.82
2023-02-17T11:17:54.478Z,10.86
2023-02-17T11:20:21.433Z,10.93
2023-02-17T11:23:02.763Z,11.00
2023-02-17T11:25:34.556Z,11.06
2023-02-17T11:28:03.584Z,11.12
2023-02-17T11:30:32.536Z,11.13
2023-02-17T11:32:59.022Z,11.12
2023-02-17T11:35:46.088Z,11.15
2023-02-17T11:38:18.945Z,11.21
2023-02-17T11:40:59.601Z,11.24
2023-02-17T11:43:30.570Z,11.28
2023-02-17T11:46:38.714Z,11.31
2023-02-17T11:49:33.885Z,11.31
2023-02-17T11:52:19.077Z,11.37
2023-02-17T11:55:00.834Z,11.38
2023-02-17T11:58:01.981Z,11.35
2023-02-17T12:00:54.374Z,11.42
2023-02-17T12:03:48.222Z,11.53
2023-02-17T12:06:24.093Z,11.50
2023-02-17T12:09:20.475Z,11.50
2023-02-17T12:12:01.513Z,11.54
2023-02-17T12:15:03.227Z,11.61
2023-02-17T12:17:42.242Z,11.57
2023-02-17T12:20:31.666Z,11.52
2023-02-17T12:23:09.389Z,11.52
2023-02-17T12:25:49.770Z,11.44
2023-02-17T12:28:54.090Z,11.41
2023-02-17T12:31:41.995Z,11.37
2023-02-17T12:34:43.832Z,11.32
2023-02-17T12:37:21.447Z,11.37
2023-02-17T12:40:03.355Z,11.26
2023-02-17T12:42:41.191Z,11.31
2023-02-17T12:45:39.433Z,11.35
2023-02-17T12:48:14.831Z,11.31
2023-02-17T12:50:56.558Z,11.27
2023-02-17T12:53:42.081Z,11.29
2023-02-17T12:56:33.616Z,11.31
2023-02-17T12:59:12.664Z,11.30
2023-02-17T13:01:48.947Z,11.25
2023-02-17T13:04:18.313Z,11.26
2023-02-17T13:06:53.140Z,11.28
2023-02-17T13:09:34.498Z,11.22
2023-02-17T13:12:27.305Z,11.22
2023-02-17T13:14:55.224Z,11.14
2023-02-17T13:17:37.728Z,11.10
2023-02-17T13:20:07.384Z,10.99
2023-02-17T13:22:34.605Z,10.88
2023-02-17T13:25:02.603Z,10.85
2023-02-17T13:27:29.042Z,10.72
2023-02-17T13:30:21.729Z,10.67
2023-02-17T13:33:00.284Z,10.60
2023-02-17T13:35:27.883Z,10.63
2023-02-17T13:37:55.012Z,10.60
2023-02-17T13:40:24.604Z,10.54
2023-02-17T13:42:54.018Z,10.50
2023-02-17T13:45:27.431Z,10.54
2023-02-17T13:47:59.258Z,10.54
2023-02-17T13:50:35.993Z,10.45
2023-02-17T13:53:21.016Z,10.46
2023-02-17T13:55:47.796Z,10.43
2023-02-17T13:58:14.292Z,10.32
2023-02-17T14:00:43.378Z,10.35
2023-02-17T14:03:41.565Z,10.34
2023-02-17T14:06:13.827Z,10.29
2023-02-17T14:08:42.921Z,10.26
2023-02-17T14:11:18.207Z,10.23
2023-02-17T14:13:47.703Z,10.18
2023-02-17T14:16:31.376Z,10.14
2023-02-17T14:19:18.216Z,10.14
2023-02-17T14:22:02.518Z,10.17
2023-02-17T14:24:37.329Z,10.14
2023-02-17T14:27:09.164Z,10.21
2023-02-17T14:29:44.858Z,10.19
2023-02-17T14:32:50.076Z,10.15
2023-02-17T14:35:23.469Z,10.14
2023-02-17T14:37:52.954Z,10.17
2023-02-17T14:40:24.777Z,10.19
2023-02-17T14:42:51.878Z,10.17
2023-02-17T14:45:19.442Z,10.19
2023-02-17T14:47:46.434Z,10.26
2023-02-17T14:50:13.456Z,10.25
2023-02-17T14:52:49.290Z,10.23
2023-02-17T14:55:38.901Z,10.25
2023-02-17T14:58:05.857Z,10.29
2023-02-17T15:00:32.251Z,10.30
2023-02-17T15:03:00.450Z,10.31
2023-02-17T15:05:28.144Z,10.30
2023-02-17T15:07:54.588Z,10.32
2023-02-17T15:10:26.737Z,10.33
2023-02-17T15:12:54.317Z,10.32
2023-02-17T15:15:21.923Z,10.34
2023-02-17T15:17:48.572Z,10.32
2023-02-17T15:20:16.518Z,10.34
2023-02-17T15:22:44.304Z,10.34
2023-02-17T15:25:17.346Z,10.34
2023-02-17T15:27:44.089Z,10.34
2023-02-17T15:30:13.736Z,10.34
2023-02-17T15:32:41.017Z,10.32
2023-02-17T15:35:17.849Z,10.34
2023-02-17T15:37:44.457Z,10.36
2023-02-17T15:40:19.190Z,10.35
2023-02-17T15:42:50.199Z,10.37
2023-02-17T15:45:19.152Z,10.38
2023-02-17T15:47:50.527Z,10.37
2023-02-17T15:50:23.027Z,10.39
2023-02-17T15:52:50.618Z,10.43
2023-02-17T15:55:21.401Z,10.41
2023-02-17T15:57:50.954Z,10.40
2023-02-17T16:00:21.649Z,10.39
2023-02-17T16:02:48.120Z,10.42
2023-02-17T16:05:16.647Z,10.37
2023-02-17T16:07:43.652Z,10.41
2023-02-17T16:10:13.667Z,10.42
2023-02-17T16:12:40.228Z,10.42
2023-02-17T16:15:13.070Z,10.38
2023-02-17T16:17:39.665Z,10.41
2023-02-17T16:20:13.415Z,10.35
2023-02-17T16:22:39.930Z,10.38
2023-02-17T16:25:06.608Z,10.24
2023-02-17T16:27:33.159Z,10.21
2023-02-17T16:30:00.926Z,10.23
2023-02-17T16:32:27.519Z,10.19
2023-02-17T16:34:54.165Z,10.19
2023-02-17T16:37:20.631Z,10.10
2023-02-17T16:39:47.068Z,10.13
2023-02-17T16:42:15.448Z,10.11
2023-02-17T16:44:42.274Z,10.17
2023-02-17T16:47:18.501Z,10.12
2023-02-17T16:49:47.479Z,10.14
2023-02-17T16:52:24.300Z,10.13
2023-02-17T16:54:51.291Z,10.11
2023-02-17T16:57:19.574Z,10.15
2023-02-17T16:59:47.069Z,10.21
2023-02-17T17:02:13.883Z,10.23
2023-02-17T17:04:40.317Z,10.27
2023-02-17T17:07:07.824Z,10.29
2023-02-17T17:09:34.778Z,10.23
2023-02-17T17:12:01.348Z,10.23
2023-02-17T17:14:27.725Z,10.33
2023-02-17T17:17:01.499Z,10.32
2023-02-17T17:19:28.000Z,10.33
2023-02-17T17:21:54.499Z,10.41
2023-02-17T17:24:21.781Z,10.38
2023-02-17T17:26:50.364Z,10.37
2023-02-17T17:29:18.802Z,10.37
2023-02-17T17:31:45.568Z,10.35
2023-02-17T17:34:12.198Z,10.27
2023-02-17T17:36:43.948Z,10.26
2023-02-17T17:39:22.741Z,10.22
2023-02-17T17:41:50.581Z,10.15
2023-02-17T17:44:17.233Z,10.17
2023-02-17T17:46:44.132Z,10.11
2023-02-17T17:49:13.575Z,10.07
2023-02-17T17:51:40.844Z,10.09
2023-02-17T17:54:07.875Z,10.01
2023-02-17T17:56:37.625Z,9.94
2023-02-17T17:59:05.192Z,9.83
2023-02-17T18:01:32.022Z,9.79
2023-02-17T18:04:00.134Z,9.77
2023-02-17T18:06:43.027Z,9.70
2023-02-17T18:09:30.643Z,9.70
2023-02-17T18:12:01.348Z,9.65
2023-02-17T18:14:28.506Z,9.60
2023-02-17T18:16:54.885Z,9.59
2023-02-17T18:19:22.443Z,9.55
2023-02-17T18:21:49.518Z,9.50
2023-02-17T18:24:15.929Z,9.41
2023-02-17T18:26:42.442Z,9.39
2023-02-17T18:29:08.920Z,9.31
2023-02-17T18:31:36.217Z,9.28
2023-02-17T18:34:03.817Z,9.23
2023-02-17T18:36:30.772Z,9.19
2023-02-17T18:38:57.189Z,9.14
2023-02-17T18:41:32.124Z,9.10
2023-02-17T18:43:59.992Z,9.05
2023-02-17T18:46:29.051Z,8.94
2023-02-17T18:48:56.302Z,8.85
2023-02-17T18:51:24.311Z,8.86
2023-02-17T18:53:51.420Z,8.81
2023-02-17T18:56:20.997Z,8.78
2023-02-17T18:58:49.658Z,8.68
2023-02-17T19:01:20.635Z,8.65
2023-02-17T19:03:47.276Z,8.52
2023-02-17T19:06:17.540Z,8.46
2023-02-17T19:08:44.758Z,8.41
2023-02-17T19:11:11.758Z,8.33
2023-02-17T19:13:38.516Z,8.30
2023-02-17T19:16:16.698Z,8.29
2023-02-17T19:18:44.123Z,8.22
2023-02-17T19:21:10.955Z,8.10
2023-02-17T19:23:38.105Z,8.10
2023-02-17T19:26:07.067Z,8.09
2023-02-17T19:28:34.845Z,8.07
2023-02-17T19:31:04.079Z,8.05
2023-02-17T19:33:30.547Z,8.06
2023-02-17T19:35:57.128Z,7.93
2023-02-17T19:38:23.707Z,7.97
2023-02-17T19:40:50.540Z,7.96
2023-02-17T19:43:17.095Z,7.84
2023-02-17T19:45:46.405Z,7.76
2023-02-17T19:48:12.877Z,7.81
2023-02-17T19:50:39.268Z,7.83
2023-02-17T19:53:05.685Z,7.79
2023-02-17T19:55:32.108Z,7.75
2023-02-17T19:57:58.624Z,7.73
2023-02-17T20:00:25.091Z,7.72
2023-02-17T20:02:51.740Z,7.77
2023-02-17T20:05:18.306Z,7.73
2023-02-17T20:07:45.689Z,7.72
2023-02-17T20:10:12.510Z,7.65
2023-02-17T20:12:38.964Z,7.55
2023-02-17T20:15:06.440Z,7.55
2023-02-17T20:17:32.960Z,7.60
2023-02-17T20:19:59.606Z,7.50
2023-02-17T20:22:26.242Z,7.54
2023-02-17T20:24:52.969Z,7.51
2023-02-17T20:27:19.455Z,7.50
2023-02-17T20:29:45.887Z,7.49
2023-02-17T20:32:12.462Z,7.46
2023-02-17T20:34:39.488Z,7.39
2023-02-17T20:37:06.740Z,7.36
2023-02-17T20:39:35.364Z,7.42
2023-02-17T20:42:02.873Z,7.29
2023-02-17T20:44:29.318Z,7.29
2023-02-17T20:46:56.963Z,7.30
2023-02-17T20:49:23.839Z,7.22
2023-02-17T20:51:51.159Z,7.33
2023-02-17T20:54:18.058Z,7.30
2023-02-17T20:56:46.518Z,7.19
2023-02-17T20:59:13.727Z,7.27
2023-02-17T21:01:41.611Z,7.21
2023-02-17T21:04:08.923Z,7.06
2023-02-17T21:06:41.238Z,7.10
2023-02-17T21:09:13.534Z,7.08
2023-02-17T21:11:40.698Z,7.19
2023-02-17T21:14:07.518Z,7.13
2023-02-17T21:16:34.068Z,7.04
2023-02-17T21:19:00.867Z,7.03
2023-02-17T21:21:28.151Z,7.02
2023-02-17T21:23:55.912Z,7.11
2023-02-17T21:26:23.004Z,7.00
2023-02-17T21:28:49.812Z,7.05
2023-02-17T21:31:17.233Z,6.95
2023-02-17T21:33:44.180Z,6.96
2023-02-17T21:36:12.917Z,6.94
2023-02-17T21:38:40.025Z,6.98
2023-02-17T21:41:11.445Z,6.96
2023-02-17T21:43:57.982Z,6.93
2023-02-17T21:46:25.209Z,6.93
2023-02-17T21:48:53.307Z,6.82
2023-02-17T21:51:20.551Z,6.87
2023-02-17T21:53:47.315Z,6.83
2023-02-17T21:56:14.680Z,6.87
2023-02-17T21:58:45.888Z,6.75
2023-02-17T22:01:12.721Z,6.77
2023-02-17T22:03:39.316Z,6.81
2023-02-17T22:06:14.143Z,6.81
2023-02-17T22:08:40.609Z,6.70
2023-02-17T22:11:13.613Z,6.75
2023-02-17T22:13:40.018Z,6.76
2023-02-17T22:16:07.362Z,6.72
2023-02-17T22:18:33.995Z,6.73
2023-02-17T22:21:00.374Z,6.74
2023-02-17T22:23:27.359Z,6.75
2023-02-17T22:25:53.854Z,6.68
2023-02-17T22:28:22.004Z,6.67
2023-02-17T22:30:52.972Z,6.66
2023-02-17T22:33:19.482Z,6.66
2023-02-17T22:35:45.903Z,6.64
2023-02-17T22:38:12.481Z,6.65
2023-02-17T22:40:40.829Z,6.56
2023-02-17T22:43:07.303Z,6.70
2023-02-17T22:45:33.787Z,6.61
2023-02-17T22:48:00.227Z,6.66
2023-02-17T22:50:26.641Z,6.60
2023-02-17T22:52:53.193Z,6.58
2023-02-17T22:55:19.668Z,6.63
2023-02-17T22:57:47.278Z,6.61
2023-02-17T23:00:14.544Z,6.67
2023-02-17T23:02:40.916Z,6.69
2023-02-17T23:05:07.504Z,6.63
2023-02-17T23:07:33.908Z,6.54
2023-02-17T23:10:03.644Z,6.54
2023-02-17T23:12:30.316Z,6.61
2023-02-17T23:14:56.753Z,6.68
2023-02-17T23:17:24.822Z,6.67
2023-02-17T23:19:51.302Z,6.73
2023-02-17T23:22:18.996Z,6.73
2023-02-17T23:24:47.494Z,6.71
2023-02-17T23:27:14.577Z,6.83
2023-02-17T23:29:41.837Z,6.79
2023-02-17T23:32:08.485Z,6.86
2023-02-17T23:34:34.929Z,6.87
2023-02-17T23:37:01.718Z,6.96
2023-02-17T23:39:28.118Z,6.86
2023-02-17T23:41:54.567Z,6.82
2023-02-17T23:44:21.057Z,6.83
2023-02-17T23:46:47.605Z,6.74
2023-02-17T23:49:16.149Z,6.80
2023-02-17T23:51:42.937Z,6.76
2023-02-17T23:54:09.442Z,6.86
2023-02-17T23:56:37.011Z,6.78
2023-02-17T23:59:03.769Z,6.76
